Time;durP1;ratioP1;P1;durP2;ratioP2;P2;SDS_P1;SDS_P2;PMS_P1;PMS_P2;Temp;Humidity;BMP_temperature;BMP_pressure;BME280_temperature;BME280_humidity;BME280_pressure;Samples;Min_cycle;Max_cycle;Signal;HPM_P1;HPM_P2
2022/01/07 00:00:16;;;;;;;17.07;9.73;;;;;;;;;;2064479;28;20268;-61
2022/01/07 00:01:16;;;;;;;20.40;10.37;;;;;;;;;;2065121;28;20161;-59
2022/01/07 00:02:17;;;;;;;18.00;9.57;;;;;;;;;;2064509;28;20216;-55
2022/01/07 00:03:18;;;;;;;20.20;10.60;;;;;;;;;;2064198;28;20208;-58
2022/01/07 00:04:18;;;;;;;17.40;10.23;;;;;;;;;;2064404;28;20185;-56
2022/01/07 00:05:19;;;;;;;18.77;11.00;;;;;;;;;;2064034;28;20182;-59
2022/01/07 00:06:19;;;;;;;16.37;10.57;;;;;;;;;;2066066;28;20185;-55
2022/01/07 00:07:19;;;;;;;14.83;9.70;;;;;;;;;;2063963;28;20197;-59
2022/01/07 00:08:19;;;;;;;20.17;10.07;;;;;;;;;;2060331;28;20186;-59
2022/01/07 00:09:20;;;;;;;15.83;10.30;;;;;;;;;;2061621;28;20170;-55
2022/01/07 00:10:21;;;;;;;17.73;9.80;;;;;;;;;;2062324;28;20190;-58
2022/01/07 00:11:21;;;;;;;15.53;9.43;;;;;;;;;;2063973;28;20174;-59
2022/01/07 00:12:22;;;;;;;15.53;9.97;;;;;;;;;;2063487;28;20177;-59
2022/01/07 00:13:23;;;;;;;17.27;9.60;;;;;;;;;;2058228;28;20206;-59
2022/01/07 00:14:23;;;;;;;19.03;9.23;;;;;;;;;;2062571;28;20265;-64
2022/01/07 00:15:23;;;;;;;16.47;9.13;;;;;;;;;;2064314;28;20172;-59
2022/01/07 00:16:23;;;;;;;17.33;9.53;;;;;;;;;;2061734;28;20190;-58
2022/01/07 00:17:24;;;;;;;13.67;9.33;;;;;;;;;;2056348;28;20201;-60
2022/01/07 00:18:24;;;;;;;15.13;8.63;;;;;;;;;;2061771;28;20718;-59
2022/01/07 00:19:24;;;;;;;18.67;9.43;;;;;;;;;;2058354;28;20556;-60
2022/01/07 00:20:25;;;;;;;15.50;9.97;;;;;;;;;;2062481;28;20174;-58
2022/01/07 00:21:25;;;;;;;12.43;9.40;;;;;;;;;;2059116;28;20217;-60
2022/01/07 00:22:26;;;;;;;13.27;9.30;;;;;;;;;;2067272;28;20181;-59
2022/01/07 00:23:26;;;;;;;16.30;9.00;;;;;;;;;;2068621;28;20319;-58
2022/01/07 00:24:26;;;;;;;18.07;9.70;;;;;;;;;;2063905;28;20619;-56
2022/01/07 00:25:27;;;;;;;11.97;8.53;;;;;;;;;;2063099;28;20178;-58
2022/01/07 00:26:27;;;;;;;16.73;9.13;;;;;;;;;;2064294;28;20189;-59
2022/01/07 00:27:27;;;;;;;14.47;8.70;;;;;;;;;;2063615;28;20264;-57
2022/01/07 00:28:27;;;;;;;16.33;8.60;;;;;;;;;;2061771;28;20193;-57
2022/01/07 00:29:28;;;;;;;12.57;8.20;;;;;;;;;;2059431;28;20642;-57
2022/01/07 00:30:28;;;;;;;17.27;9.87;;;;;;;;;;2064247;28;20200;-58
2022/01/07 00:31:28;;;;;;;18.77;9.17;;;;;;;;;;2062284;28;20666;-57
2022/01/07 00:32:28;;;;;;;16.17;9.43;;;;;;;;;;2065770;28;20551;-61
2022/01/07 00:33:29;;;;;;;14.07;8.67;;;;;;;;;;2064106;28;20192;-55
2022/01/07 00:34:29;;;;;;;16.33;8.43;;;;;;;;;;2064450;28;20174;-58
2022/01/07 00:35:29;;;;;;;12.77;8.53;;;;;;;;;;2062350;28;20162;-59
2022/01/07 00:36:29;;;;;;;17.53;8.83;;;;;;;;;;2064273;28;20220;-56
2022/01/07 00:37:30;;;;;;;16.90;8.97;;;;;;;;;;2065877;28;20182;-56
2022/01/07 00:38:30;;;;;;;13.27;8.83;;;;;;;;;;2061693;28;20220;-57
2022/01/07 00:39:30;;;;;;;11.17;7.17;;;;;;;;;;2060430;28;20202;-57
2022/01/07 00:40:30;;;;;;;14.47;8.53;;;;;;;;;;2058840;28;20514;-59
2022/01/07 00:41:31;;;;;;;12.20;8.30;;;;;;;;;;2064304;28;20599;-59
2022/01/07 00:42:31;;;;;;;12.87;7.57;;;;;;;;;;2061757;28;20527;-58
2022/01/07 00:43:31;;;;;;;11.00;7.30;;;;;;;;;;2064429;28;20618;-58
2022/01/07 00:44:32;;;;;;;11.97;8.13;;;;;;;;;;2063901;28;20638;-57
2022/01/07 00:45:33;;;;;;;14.07;8.37;;;;;;;;;;2064434;28;20982;-59
2022/01/07 00:46:33;;;;;;;14.23;7.87;;;;;;;;;;2063313;28;20181;-59
2022/01/07 00:47:33;;;;;;;14.70;8.27;;;;;;;;;;2066781;28;20209;-56
2022/01/07 00:48:33;;;;;;;13.13;8.07;;;;;;;;;;2062830;28;20174;-60
2022/01/07 00:49:34;;;;;;;13.23;7.40;;;;;;;;;;2060034;28;20181;-58
2022/01/07 00:50:34;;;;;;;15.70;8.00;;;;;;;;;;2063830;28;20181;-59
2022/01/07 00:51:34;;;;;;;13.20;8.10;;;;;;;;;;2063987;28;20174;-59
2022/01/07 00:52:34;;;;;;;16.37;8.90;;;;;;;;;;2061228;28;20867;-60
2022/01/07 00:53:35;;;;;;;9.57;7.63;;;;;;;;;;2059156;28;20201;-59
2022/01/07 00:54:35;;;;;;;12.10;7.97;;;;;;;;;;2064413;28;20162;-56
2022/01/07 00:55:36;;;;;;;10.80;7.47;;;;;;;;;;2063919;28;20176;-58
2022/01/07 00:56:36;;;;;;;11.70;7.50;;;;;;;;;;2061127;28;20249;-56
2022/01/07 00:57:37;;;;;;;11.10;7.27;;;;;;;;;;2064935;28;20407;-61
2022/01/07 00:58:37;;;;;;;14.73;7.87;;;;;;;;;;2065812;28;20210;-60
2022/01/07 00:59:39;;;;;;;14.30;7.37;;;;;;;;;;2068713;28;20166;-56
2022/01/07 01:00:39;;;;;;;9.93;7.43;;;;;;;;;;2061584;28;20194;-58
2022/01/07 01:01:39;;;;;;;11.43;7.20;;;;;;;;;;2059096;28;20178;-57
2022/01/07 01:02:40;;;;;;;9.70;7.70;;;;;;;;;;2067088;28;20910;-58
2022/01/07 01:03:41;;;;;;;10.50;7.53;;;;;;;;;;2065812;28;20193;-59
2022/01/07 01:04:44;;;;;;;15.47;8.40;;;;;;;;;;2068826;28;20540;-61
2022/01/07 01:05:45;;;;;;;11.40;7.07;;;;;;;;;;2061805;28;20830;-59
2022/01/07 01:06:46;;;;;;;11.10;7.20;;;;;;;;;;2061713;28;20560;-58
2022/01/07 01:07:46;;;;;;;8.70;7.03;;;;;;;;;;2065401;28;20201;-60
2022/01/07 01:08:46;;;;;;;8.90;6.97;;;;;;;;;;2061387;28;20184;-60
2022/01/07 01:09:46;;;;;;;11.10;7.30;;;;;;;;;;2065308;28;20209;-59
2022/01/07 01:10:47;;;;;;;14.30;7.40;;;;;;;;;;2065932;28;20180;-60
2022/01/07 01:11:47;;;;;;;9.57;7.00;;;;;;;;;;2063344;28;20221;-54
2022/01/07 01:12:47;;;;;;;10.80;6.77;;;;;;;;;;2064495;28;20288;-56
2022/01/07 01:13:47;;;;;;;12.63;7.70;;;;;;;;;;2065526;28;20217;-56
2022/01/07 01:14:48;;;;;;;14.53;7.53;;;;;;;;;;2060647;28;20174;-56
2022/01/07 01:15:48;;;;;;;12.00;7.67;;;;;;;;;;2064709;28;20643;-57
2022/01/07 01:16:48;;;;;;;11.77;7.73;;;;;;;;;;2065753;28;20587;-58
2022/01/07 01:17:49;;;;;;;18.63;8.10;;;;;;;;;;2064735;28;20742;-55
2022/01/07 01:18:50;;;;;;;12.57;6.90;;;;;;;;;;2067398;28;20231;-58
2022/01/07 01:19:50;;;;;;;11.77;7.17;;;;;;;;;;2074129;28;20226;-59
2022/01/07 01:20:50;;;;;;;9.20;6.77;;;;;;;;;;2068779;28;20662;-62
2022/01/07 01:21:50;;;;;;;9.60;6.93;;;;;;;;;;2066815;28;20312;-62
2022/01/07 01:22:51;;;;;;;9.63;6.37;;;;;;;;;;2066103;28;20232;-59
2022/01/07 01:23:51;;;;;;;10.97;6.60;;;;;;;;;;2067102;28;20264;-61
2022/01/07 01:24:51;;;;;;;7.10;6.40;;;;;;;;;;2066246;28;20296;-62
2022/01/07 01:25:52;;;;;;;10.70;7.07;;;;;;;;;;2067201;28;20181;-61
2022/01/07 01:26:52;;;;;;;11.93;7.37;;;;;;;;;;2064895;28;20196;-59
2022/01/07 01:27:53;;;;;;;11.10;6.57;;;;;;;;;;2066219;28;20184;-59
2022/01/07 01:28:54;;;;;;;13.20;6.90;;;;;;;;;;2064988;28;20185;-58
2022/01/07 01:29:54;;;;;;;11.67;6.87;;;;;;;;;;2066144;28;20517;-60
2022/01/07 01:30:54;;;;;;;12.40;6.80;;;;;;;;;;2064984;28;20546;-59
2022/01/07 01:31:54;;;;;;;11.50;6.67;;;;;;;;;;2065463;28;20260;-59
2022/01/07 01:32:55;;;;;;;12.63;7.27;;;;;;;;;;2065546;28;20205;-59
2022/01/07 01:33:55;;;;;;;11.70;6.03;;;;;;;;;;2059950;28;20293;-56
2022/01/07 01:34:55;;;;;;;14.63;6.23;;;;;;;;;;2065256;28;20182;-59
2022/01/07 01:35:56;;;;;;;11.63;6.90;;;;;;;;;;2065220;28;20170;-60
2022/01/07 01:36:56;;;;;;;14.27;6.90;;;;;;;;;;2067884;28;20552;-60
2022/01/07 01:37:56;;;;;;;12.93;6.70;;;;;;;;;;2061857;28;20166;-58
2022/01/07 01:38:56;;;;;;;8.67;6.40;;;;;;;;;;2064101;28;20240;-59
2022/01/07 01:39:57;;;;;;;7.77;6.03;;;;;;;;;;2062686;28;20178;-59
2022/01/07 01:40:58;;;;;;;8.60;6.50;;;;;;;;;;2064868;28;20208;-59
2022/01/07 01:41:58;;;;;;;9.20;6.67;;;;;;;;;;2066091;28;20253;-59
2022/01/07 01:42:59;;;;;;;11.63;6.97;;;;;;;;;;2059083;28;20170;-59
2022/01/07 01:44:00;;;;;;;10.23;6.70;;;;;;;;;;2062634;28;20216;-59
2022/01/07 01:45:00;;;;;;;9.93;5.63;;;;;;;;;;2057504;28;20174;-56
2022/01/07 01:46:01;;;;;;;10.60;6.80;;;;;;;;;;2064273;28;20655;-56
2022/01/07 01:47:02;;;;;;;9.50;6.73;;;;;;;;;;2070749;28;20173;-56
2022/01/07 01:48:03;;;;;;;8.63;6.20;;;;;;;;;;2060909;28;20194;-59
2022/01/07 01:49:04;;;;;;;10.10;6.77;;;;;;;;;;2062562;28;20215;-59
2022/01/07 01:50:05;;;;;;;9.17;6.57;;;;;;;;;;2064700;28;20291;-59
2022/01/07 01:51:06;;;;;;;13.33;6.77;;;;;;;;;;2057407;28;20185;-61
2022/01/07 01:52:07;;;;;;;10.13;5.50;;;;;;;;;;2066330;28;20193;-60
2022/01/07 01:53:07;;;;;;;10.23;6.53;;;;;;;;;;2065281;28;20245;-60
2022/01/07 01:54:07;;;;;;;7.77;5.90;;;;;;;;;;2065004;28;20319;-59
2022/01/07 01:55:08;;;;;;;10.73;6.07;;;;;;;;;;2064510;28;20228;-57
2022/01/07 01:56:08;;;;;;;9.43;6.07;;;;;;;;;;2064952;28;20276;-60
2022/01/07 01:57:10;;;;;;;11.27;6.57;;;;;;;;;;2056820;28;20216;-58
2022/01/07 01:58:11;;;;;;;7.43;6.00;;;;;;;;;;2057252;28;20179;-60
2022/01/07 01:59:11;;;;;;;10.17;5.77;;;;;;;;;;2064619;28;20180;-59
2022/01/07 02:00:13;;;;;;;7.77;6.00;;;;;;;;;;2066557;28;20200;-58
2022/01/07 02:01:14;;;;;;;9.27;6.03;;;;;;;;;;2065117;28;20189;-57
2022/01/07 02:02:15;;;;;;;11.83;5.70;;;;;;;;;;2065636;28;20176;-56
2022/01/07 02:03:15;;;;;;;7.90;6.40;;;;;;;;;;2060066;28;20190;-57
2022/01/07 02:04:15;;;;;;;11.33;6.33;;;;;;;;;;2059683;28;20194;-59
2022/01/07 02:05:15;;;;;;;10.47;5.73;;;;;;;;;;2065276;28;20193;-59
2022/01/07 02:06:16;;;;;;;9.37;6.07;;;;;;;;;;2073289;28;20259;-60
2022/01/07 02:07:16;;;;;;;9.33;6.10;;;;;;;;;;2063172;28;20216;-55
2022/01/07 02:08:16;;;;;;;7.43;5.87;;;;;;;;;;2064798;28;20189;-54
2022/01/07 02:09:20;;;;;;;6.93;5.13;;;;;;;;;;2064682;28;20638;-54
2022/01/07 02:10:20;;;;;;;12.67;6.27;;;;;;;;;;2065819;28;20638;-59
2022/01/07 02:11:20;;;;;;;12.67;6.17;;;;;;;;;;2065132;28;20450;-55
2022/01/07 02:12:21;;;;;;;9.30;5.87;;;;;;;;;;2063531;28;20642;-60
2022/01/07 02:13:21;;;;;;;7.70;5.70;;;;;;;;;;2060933;28;20174;-57
2022/01/07 02:14:21;;;;;;;8.40;5.80;;;;;;;;;;2064728;28;20185;-58
2022/01/07 02:15:22;;;;;;;7.10;5.67;;;;;;;;;;2064461;28;20182;-60
2022/01/07 02:16:25;;;;;;;6.50;5.90;;;;;;;;;;2062779;28;20197;-57
2022/01/07 02:17:26;;;;;;;7.10;5.43;;;;;;;;;;2064375;28;20677;-60
2022/01/07 02:18:26;;;;;;;8.00;5.60;;;;;;;;;;2063905;28;20181;-60
2022/01/07 02:19:30;;;;;;;9.23;6.10;;;;;;;;;;2062870;28;20247;-60
2022/01/07 02:20:30;;;;;;;10.90;6.47;;;;;;;;;;2059756;28;20194;-61
2022/01/07 02:21:35;;;;;;;8.63;5.77;;;;;;;;;;2066105;28;20178;-57
2022/01/07 02:22:35;;;;;;;5.67;4.90;;;;;;;;;;2064933;28;20273;-58
2022/01/07 02:23:36;;;;;;;7.77;5.77;;;;;;;;;;2064759;28;20212;-58
2022/01/07 02:24:37;;;;;;;5.97;5.37;;;;;;;;;;2064753;28;20648;-56
2022/01/07 02:25:37;;;;;;;7.70;5.27;;;;;;;;;;2066406;28;20177;-60
2022/01/07 02:26:37;;;;;;;8.80;5.60;;;;;;;;;;2065222;28;20220;-58
2022/01/07 02:27:38;;;;;;;13.03;6.57;;;;;;;;;;2064784;28;20174;-59
2022/01/07 02:28:40;;;;;;;7.77;6.23;;;;;;;;;;2066388;28;20178;-59
2022/01/07 02:29:41;;;;;;;9.10;6.07;;;;;;;;;;2069950;28;20545;-59
2022/01/07 02:30:42;;;;;;;7.90;6.10;;;;;;;;;;2065032;28;20182;-60
2022/01/07 02:31:42;;;;;;;11.97;5.93;;;;;;;;;;2067072;28;20566;-61
2022/01/07 02:32:42;;;;;;;11.37;6.00;;;;;;;;;;2066085;28;20209;-60
2022/01/07 02:33:43;;;;;;;10.90;6.33;;;;;;;;;;2057359;28;20198;-59
2022/01/07 02:34:43;;;;;;;12.40;6.33;;;;;;;;;;2064926;28;20173;-60
2022/01/07 02:35:46;;;;;;;9.57;6.83;;;;;;;;;;2065683;28;20177;-61
2022/01/07 02:36:46;;;;;;;10.10;6.20;;;;;;;;;;2064714;28;20173;-61
2022/01/07 02:37:46;;;;;;;10.20;6.80;;;;;;;;;;2064724;28;20180;-61
2022/01/07 02:38:46;;;;;;;12.03;6.53;;;;;;;;;;2073253;28;20185;-60
2022/01/07 02:39:49;;;;;;;11.47;6.80;;;;;;;;;;2066144;28;20201;-58
2022/01/07 02:40:49;;;;;;;14.70;7.40;;;;;;;;;;2066774;28;20368;-59
2022/01/07 02:41:50;;;;;;;12.27;6.30;;;;;;;;;;2067269;28;20675;-60
2022/01/07 02:42:50;;;;;;;15.67;7.87;;;;;;;;;;2062248;28;20201;-61
2022/01/07 02:43:50;;;;;;;10.90;6.70;;;;;;;;;;2063476;28;20197;-62
2022/01/07 02:44:51;;;;;;;12.87;6.97;;;;;;;;;;2060913;28;20189;-60
2022/01/07 02:45:51;;;;;;;12.93;7.67;;;;;;;;;;2065095;28;20556;-58
2022/01/07 02:46:51;;;;;;;13.37;7.87;;;;;;;;;;2058665;28;20345;-59
2022/01/07 02:47:55;;;;;;;11.37;7.70;;;;;;;;;;2061420;28;20248;-56
2022/01/07 02:48:57;;;;;;;11.57;8.10;;;;;;;;;;2063785;28;20259;-59
2022/01/07 02:50:04;;;;;;;11.97;8.17;;;;;;;;;;2062099;28;20434;-58
2022/01/07 02:51:04;;;;;;;12.87;8.07;;;;;;;;;;2065644;28;20172;-58
2022/01/07 02:52:04;;;;;;;14.90;7.43;;;;;;;;;;2062603;28;20442;-60
2022/01/07 02:53:07;;;;;;;13.30;8.43;;;;;;;;;;2065512;28;20292;-58
2022/01/07 02:54:08;;;;;;;13.90;8.07;;;;;;;;;;2062806;28;20287;-56
2022/01/07 02:55:08;;;;;;;12.80;8.57;;;;;;;;;;2064793;28;20170;-58
2022/01/07 02:56:09;;;;;;;12.77;7.77;;;;;;;;;;2057178;28;20193;-58
2022/01/07 02:57:09;;;;;;;12.03;7.97;;;;;;;;;;2064381;28;20232;-59
2022/01/07 02:58:10;;;;;;;14.53;8.27;;;;;;;;;;2072676;28;20193;-57
2022/01/07 02:59:10;;;;;;;12.27;8.43;;;;;;;;;;2065928;28;20181;-59
2022/01/07 03:00:11;;;;;;;18.50;8.80;;;;;;;;;;2065124;28;20376;-57
2022/01/07 03:01:11;;;;;;;14.67;7.60;;;;;;;;;;2068117;28;20177;-58
2022/01/07 03:02:11;;;;;;;12.87;8.10;;;;;;;;;;2064220;28;20273;-58
2022/01/07 03:03:12;;;;;;;11.00;7.73;;;;;;;;;;2065110;28;20280;-61
2022/01/07 03:04:12;;;;;;;15.87;8.70;;;;;;;;;;2066061;28;20193;-60
2022/01/07 03:05:12;;;;;;;14.60;8.40;;;;;;;;;;2065753;28;20339;-60
2022/01/07 03:06:12;;;;;;;14.97;8.77;;;;;;;;;;2062996;28;20192;-61
2022/01/07 03:07:13;;;;;;;10.13;8.33;;;;;;;;;;2057401;28;20182;-60
2022/01/07 03:08:13;;;;;;;15.53;9.23;;;;;;;;;;2062961;28;20223;-60
2022/01/07 03:09:14;;;;;;;12.30;7.83;;;;;;;;;;2069200;28;20181;-60
2022/01/07 03:10:18;;;;;;;19.53;8.57;;;;;;;;;;2062404;28;20610;-58
2022/01/07 03:11:19;;;;;;;11.63;8.67;;;;;;;;;;2057713;28;20178;-60
2022/01/07 03:12:19;;;;;;;10.27;8.10;;;;;;;;;;2060434;28;20320;-60
2022/01/07 03:13:20;;;;;;;13.27;7.77;;;;;;;;;;2063844;28;20161;-59
2022/01/07 03:14:20;;;;;;;12.97;8.10;;;;;;;;;;2061316;28;20224;-58
2022/01/07 03:15:21;;;;;;;11.53;8.20;;;;;;;;;;2061584;28;20174;-58
2022/01/07 03:16:21;;;;;;;10.73;8.27;;;;;;;;;;2067143;28;20165;-55
2022/01/07 03:17:21;;;;;;;14.40;9.10;;;;;;;;;;2065614;28;20571;-55
2022/01/07 03:18:22;;;;;;;15.30;8.63;;;;;;;;;;2064565;28;20189;-55
2022/01/07 03:19:22;;;;;;;9.67;8.30;;;;;;;;;;2069362;28;20211;-59
2022/01/07 03:20:22;;;;;;;12.43;8.87;;;;;;;;;;2063365;28;20273;-59
2022/01/07 03:21:23;;;;;;;16.47;9.40;;;;;;;;;;2060488;28;20168;-60
2022/01/07 03:22:23;;;;;;;14.43;8.50;;;;;;;;;;2059591;28;20182;-60
2022/01/07 03:23:23;;;;;;;14.57;8.67;;;;;;;;;;2066022;28;20758;-60
2022/01/07 03:24:24;;;;;;;12.33;8.60;;;;;;;;;;2065197;28;20280;-61
2022/01/07 03:25:24;;;;;;;13.20;8.30;;;;;;;;;;2065961;28;20559;-60
2022/01/07 03:26:24;;;;;;;14.33;8.97;;;;;;;;;;2063940;28;20174;-60
2022/01/07 03:27:24;;;;;;;12.50;8.77;;;;;;;;;;2064238;28;20240;-61
2022/01/07 03:28:25;;;;;;;12.77;8.90;;;;;;;;;;2063245;28;20221;-60
2022/01/07 03:29:25;;;;;;;10.33;7.97;;;;;;;;;;2065364;28;20556;-59
2022/01/07 03:30:25;;;;;;;10.93;8.47;;;;;;;;;;2064521;28;20190;-58
2022/01/07 03:31:26;;;;;;;13.13;9.33;;;;;;;;;;2064421;28;20181;-59
2022/01/07 03:32:26;;;;;;;13.27;8.47;;;;;;;;;;2062592;28;20789;-60
2022/01/07 03:33:26;;;;;;;13.37;9.50;;;;;;;;;;2061948;28;20221;-60
2022/01/07 03:34:27;;;;;;;13.27;9.23;;;;;;;;;;2062829;28;20273;-57
2022/01/07 03:35:27;;;;;;;15.17;8.87;;;;;;;;;;2065293;28;20169;-58
2022/01/07 03:36:27;;;;;;;12.73;8.97;;;;;;;;;;2064129;28;20646;-56
2022/01/07 03:37:27;;;;;;;14.83;9.30;;;;;;;;;;2065340;28;20867;-57
2022/01/07 03:38:28;;;;;;;15.80;9.10;;;;;;;;;;2060539;28;20671;-57
2022/01/07 03:39:28;;;;;;;12.37;8.00;;;;;;;;;;2064084;28;20225;-59
2022/01/07 03:40:29;;;;;;;16.97;9.23;;;;;;;;;;2060838;28;20339;-59
2022/01/07 03:41:29;;;;;;;17.87;9.00;;;;;;;;;;2064498;28;20249;-59
2022/01/07 03:42:29;;;;;;;15.13;8.97;;;;;;;;;;2060543;28;20186;-58
2022/01/07 03:43:30;;;;;;;14.63;8.90;;;;;;;;;;2063401;28;20197;-59
2022/01/07 03:44:30;;;;;;;17.67;8.97;;;;;;;;;;2059420;28;20181;-61
2022/01/07 03:45:30;;;;;;;13.03;8.47;;;;;;;;;;2063566;28;20170;-55
2022/01/07 03:46:30;;;;;;;13.87;8.70;;;;;;;;;;2059628;28;20205;-58
2022/01/07 03:47:31;;;;;;;14.60;8.47;;;;;;;;;;2060879;28;20185;-57
2022/01/07 03:48:31;;;;;;;10.50;8.67;;;;;;;;;;2055515;28;20178;-56
2022/01/07 03:49:31;;;;;;;16.77;8.70;;;;;;;;;;2063053;28;20207;-57
2022/01/07 03:50:32;;;;;;;13.70;8.03;;;;;;;;;;2060365;28;20193;-57
2022/01/07 03:51:32;;;;;;;13.50;8.93;;;;;;;;;;2064389;28;20598;-58
2022/01/07 03:52:33;;;;;;;10.87;9.20;;;;;;;;;;2065247;28;20169;-58
2022/01/07 03:53:33;;;;;;;13.70;8.50;;;;;;;;;;2061623;28;20198;-60
2022/01/07 03:54:33;;;;;;;16.57;10.07;;;;;;;;;;2064770;28;20207;-59
2022/01/07 03:55:34;;;;;;;12.93;8.20;;;;;;;;;;2063886;28;20646;-60
2022/01/07 03:56:34;;;;;;;16.40;9.27;;;;;;;;;;2065126;28;20186;-58
2022/01/07 03:57:34;;;;;;;16.47;9.70;;;;;;;;;;2064411;28;20173;-60
2022/01/07 03:58:34;;;;;;;15.33;9.00;;;;;;;;;;2064920;28;20181;-59
2022/01/07 03:59:35;;;;;;;14.47;8.93;;;;;;;;;;2064024;28;20181;-58
2022/01/07 04:00:36;;;;;;;10.83;9.10;;;;;;;;;;2060682;28;20197;-57
2022/01/07 04:01:37;;;;;;;15.63;9.03;;;;;;;;;;2061088;28;20268;-60
2022/01/07 04:02:37;;;;;;;12.53;8.67;;;;;;;;;;2065214;28;20182;-57
2022/01/07 04:03:38;;;;;;;15.23;9.27;;;;;;;;;;2063626;28;20628;-57
2022/01/07 04:04:38;;;;;;;13.70;8.67;;;;;;;;;;2064313;28;20174;-56
2022/01/07 04:05:38;;;;;;;14.40;9.27;;;;;;;;;;2064215;28;20652;-60
2022/01/07 04:06:39;;;;;;;12.73;8.83;;;;;;;;;;2064310;28;20197;-60
2022/01/07 04:07:39;;;;;;;15.37;9.40;;;;;;;;;;2062542;28;20182;-61
2022/01/07 04:08:39;;;;;;;15.43;10.10;;;;;;;;;;2063494;28;20614;-59
2022/01/07 04:09:40;;;;;;;14.60;8.67;;;;;;;;;;2063694;28;20693;-58
2022/01/07 04:10:40;;;;;;;15.77;9.43;;;;;;;;;;2060736;28;20186;-56
2022/01/07 04:11:40;;;;;;;17.27;10.37;;;;;;;;;;2060925;28;20197;-58
2022/01/07 04:12:41;;;;;;;14.07;10.17;;;;;;;;;;2063734;28;20639;-57
2022/01/07 04:13:41;;;;;;;15.10;8.70;;;;;;;;;;2063512;28;20720;-60
2022/01/07 04:14:41;;;;;;;15.40;9.27;;;;;;;;;;2060533;28;20334;-60
2022/01/07 04:15:42;;;;;;;15.83;10.40;;;;;;;;;;2064404;28;20708;-59
2022/01/07 04:16:42;;;;;;;12.10;9.83;;;;;;;;;;2061549;28;20193;-57
2022/01/07 04:17:44;;;;;;;14.90;9.67;;;;;;;;;;2064160;28;20219;-59
2022/01/07 04:18:44;;;;;;;10.33;9.10;;;;;;;;;;2062658;28;20232;-60
2022/01/07 04:19:44;;;;;;;14.97;9.87;;;;;;;;;;2061974;28;20265;-57
2022/01/07 04:20:44;;;;;;;13.53;9.97;;;;;;;;;;2059410;28;20174;-58
2022/01/07 04:21:47;;;;;;;14.57;9.43;;;;;;;;;;2059686;28;20182;-63
2022/01/07 04:22:48;;;;;;;14.10;9.57;;;;;;;;;;2061438;28;20184;-58
2022/01/07 04:23:48;;;;;;;11.53;9.87;;;;;;;;;;2060799;28;20463;-57
2022/01/07 04:24:48;;;;;;;10.63;9.50;;;;;;;;;;2058803;28;20197;-60
2022/01/07 04:25:49;;;;;;;16.83;10.20;;;;;;;;;;2061941;28;20220;-59
2022/01/07 04:26:49;;;;;;;16.33;9.13;;;;;;;;;;2064224;28;20260;-60
2022/01/07 04:27:51;;;;;;;13.17;9.80;;;;;;;;;;2064410;28;20170;-60
2022/01/07 04:28:51;;;;;;;15.17;9.97;;;;;;;;;;2064505;28;20189;-60
2022/01/07 04:29:51;;;;;;;13.27;10.17;;;;;;;;;;2064021;28;20662;-61
2022/01/07 04:30:51;;;;;;;17.47;10.93;;;;;;;;;;2056090;28;20178;-58
2022/01/07 04:31:51;;;;;;;15.97;11.17;;;;;;;;;;2064527;28;20213;-61
2022/01/07 04:32:54;;;;;;;12.60;9.70;;;;;;;;;;2064940;28;20217;-59
2022/01/07 04:33:54;;;;;;;12.47;9.47;;;;;;;;;;2064457;28;20208;-60
2022/01/07 04:34:54;;;;;;;13.20;10.40;;;;;;;;;;2064329;28;20670;-59
2022/01/07 04:35:54;;;;;;;12.30;10.40;;;;;;;;;;2064846;28;20174;-60
2022/01/07 04:36:55;;;;;;;13.13;10.27;;;;;;;;;;2065264;28;20205;-60
2022/01/07 04:37:55;;;;;;;12.93;10.37;;;;;;;;;;2064599;28;20172;-60
2022/01/07 04:38:55;;;;;;;14.93;10.50;;;;;;;;;;2069790;28;20184;-60
2022/01/07 04:39:55;;;;;;;17.67;11.23;;;;;;;;;;2064728;28;20185;-61
2022/01/07 04:40:56;;;;;;;18.93;11.10;;;;;;;;;;2065447;28;20192;-59
2022/01/07 04:41:59;;;;;;;15.13;11.87;;;;;;;;;;2065187;28;20213;-59
2022/01/07 04:42:59;;;;;;;18.90;11.23;;;;;;;;;;2064958;28;20588;-60
2022/01/07 04:44:00;;;;;;;17.77;11.57;;;;;;;;;;2065043;28;20190;-56
2022/01/07 04:45:00;;;;;;;16.30;12.23;;;;;;;;;;2064618;28;20269;-56
2022/01/07 04:46:00;;;;;;;16.00;11.33;;;;;;;;;;2063028;28;20236;-60
2022/01/07 04:47:01;;;;;;;16.97;11.97;;;;;;;;;;2064353;28;20185;-56
2022/01/07 04:48:01;;;;;;;14.90;11.57;;;;;;;;;;2063609;28;20173;-61
2022/01/07 04:49:02;;;;;;;15.60;10.47;;;;;;;;;;2058722;28;20192;-60
2022/01/07 04:50:06;;;;;;;17.23;13.13;;;;;;;;;;2063213;28;20264;-60
2022/01/07 04:51:06;;;;;;;16.30;12.00;;;;;;;;;;2054732;28;20212;-58
2022/01/07 04:52:07;;;;;;;20.03;12.90;;;;;;;;;;2063363;28;20829;-59
2022/01/07 04:53:07;;;;;;;15.97;11.43;;;;;;;;;;2063424;28;20197;-54
2022/01/07 04:54:07;;;;;;;20.37;12.93;;;;;;;;;;2060808;28;20184;-56
2022/01/07 04:55:08;;;;;;;19.27;12.57;;;;;;;;;;2064283;28;20192;-61
2022/01/07 04:56:08;;;;;;;16.07;12.47;;;;;;;;;;2062506;28;20216;-60
2022/01/07 04:57:08;;;;;;;17.27;13.03;;;;;;;;;;2055902;28;20204;-59
2022/01/07 04:58:10;;;;;;;15.37;13.40;;;;;;;;;;2063057;28;20615;-56
2022/01/07 04:59:10;;;;;;;19.13;13.97;;;;;;;;;;2064482;28;20169;-61
2022/01/07 05:00:11;;;;;;;17.10;13.03;;;;;;;;;;2062058;28;20419;-60
2022/01/07 05:01:11;;;;;;;23.17;13.27;;;;;;;;;;2064068;28;20174;-59
2022/01/07 05:02:12;;;;;;;19.00;13.17;;;;;;;;;;2063401;28;20177;-59
2022/01/07 05:03:12;;;;;;;21.53;14.20;;;;;;;;;;2063821;28;20268;-60
2022/01/07 05:04:12;;;;;;;17.50;13.33;;;;;;;;;;2061933;28;20655;-60
2022/01/07 05:05:13;;;;;;;21.00;14.73;;;;;;;;;;2064011;28;20166;-57
2022/01/07 05:06:44;;;;;;;21.07;13.77;;;;;;;;;;2060762;28;20201;-61
2022/01/07 05:07:43;;;;;;;20.17;14.37;;;;;;;;;;2059939;28;20181;-58
2022/01/07 05:08:43;;;;;;;26.73;15.77;;;;;;;;;;2063641;28;20462;-59
2022/01/07 05:09:43;;;;;;;22.93;14.73;;;;;;;;;;2063139;28;20301;-59
2022/01/07 05:10:43;;;;;;;18.97;15.10;;;;;;;;;;2058169;28;20181;-59
2022/01/07 05:11:44;;;;;;;22.13;15.30;;;;;;;;;;2059375;28;20756;-58
2022/01/07 05:12:45;;;;;;;18.17;14.13;;;;;;;;;;2060978;28;20214;-56
2022/01/07 05:13:45;;;;;;;22.30;15.97;;;;;;;;;;2063798;28;20228;-58
2022/01/07 05:14:45;;;;;;;20.57;14.47;;;;;;;;;;2060862;28;20224;-60
2022/01/07 05:15:46;;;;;;;17.83;14.60;;;;;;;;;;2092281;22;20182;-61
2022/01/07 05:16:46;;;;;;;24.27;16.23;;;;;;;;;;2074858;28;20283;-60
2022/01/07 05:17:46;;;;;;;20.50;16.17;;;;;;;;;;2078273;28;20784;-61
2022/01/07 05:18:46;;;;;;;22.13;16.27;;;;;;;;;;2081157;28;20616;-61
2022/01/07 05:19:47;;;;;;;24.77;15.13;;;;;;;;;;2080134;28;20168;-62
2022/01/07 05:20:48;;;;;;;18.40;14.80;;;;;;;;;;2080598;28;20181;-65
2022/01/07 05:21:48;;;;;;;26.80;15.17;;;;;;;;;;2081218;28;20213;-62
2022/01/07 05:22:49;;;;;;;21.97;16.23;;;;;;;;;;2080256;28;20417;-63
2022/01/07 05:23:49;;;;;;;22.23;17.27;;;;;;;;;;2080588;28;20673;-64
2022/01/07 05:24:50;;;;;;;21.90;15.20;;;;;;;;;;2080078;28;20421;-62
2022/01/07 05:25:50;;;;;;;24.10;16.57;;;;;;;;;;2079713;28;20571;-64
2022/01/07 05:26:50;;;;;;;20.93;16.07;;;;;;;;;;2080223;28;20192;-63
2022/01/07 05:27:51;;;;;;;21.67;16.70;;;;;;;;;;2079386;28;20175;-64
2022/01/07 05:28:51;;;;;;;20.00;16.13;;;;;;;;;;2080064;28;20738;-60
2022/01/07 05:29:51;;;;;;;21.60;15.83;;;;;;;;;;2079281;28;20180;-64
2022/01/07 05:30:51;;;;;;;23.70;16.43;;;;;;;;;;2080362;28;20187;-62
2022/01/07 05:31:52;;;;;;;21.80;16.40;;;;;;;;;;2070147;28;20186;-63
2022/01/07 05:32:52;;;;;;;21.83;16.67;;;;;;;;;;2071057;28;20223;-61
2022/01/07 05:33:53;;;;;;;21.80;15.80;;;;;;;;;;2075156;28;20544;-62
2022/01/07 05:34:53;;;;;;;26.23;16.23;;;;;;;;;;2080575;28;20226;-62
2022/01/07 05:35:54;;;;;;;21.30;16.30;;;;;;;;;;2077132;28;20247;-63
2022/01/07 05:36:54;;;;;;;22.73;15.80;;;;;;;;;;2078044;28;20202;-63
2022/01/07 05:37:54;;;;;;;20.93;15.93;;;;;;;;;;2069070;28;20180;-62
2022/01/07 05:38:55;;;;;;;26.03;16.10;;;;;;;;;;2071737;28;20291;-63
2022/01/07 05:39:57;;;;;;;21.17;15.70;;;;;;;;;;2079712;28;20235;-62
2022/01/07 05:40:57;;;;;;;22.10;16.03;;;;;;;;;;2080637;28;20187;-62
2022/01/07 05:41:59;;;;;;;19.37;15.57;;;;;;;;;;2074314;28;20173;-62
2022/01/07 05:42:59;;;;;;;19.83;15.63;;;;;;;;;;2080122;28;20195;-62
2022/01/07 05:43:59;;;;;;;25.03;16.40;;;;;;;;;;2082316;28;20452;-62
2022/01/07 05:45:00;;;;;;;19.97;16.10;;;;;;;;;;2081401;28;20200;-62
2022/01/07 05:46:00;;;;;;;23.77;17.23;;;;;;;;;;2081817;28;20196;-64
2022/01/07 05:47:00;;;;;;;23.33;16.83;;;;;;;;;;2081373;28;20278;-63
2022/01/07 05:48:00;;;;;;;22.90;15.17;;;;;;;;;;2085713;28;20213;-63
2022/01/07 05:49:01;;;;;;;21.37;17.20;;;;;;;;;;2082934;28;20180;-60
2022/01/07 05:50:01;;;;;;;24.17;16.80;;;;;;;;;;2082131;28;20176;-63
2022/01/07 05:51:01;;;;;;;22.20;17.17;;;;;;;;;;2081241;28;20241;-62
2022/01/07 05:52:02;;;;;;;22.43;17.10;;;;;;;;;;2081405;28;20187;-64
2022/01/07 05:53:02;;;;;;;28.33;17.87;;;;;;;;;;2072647;28;20284;-57
2022/01/07 05:54:03;;;;;;;22.47;17.00;;;;;;;;;;2072381;28;20169;-63
2022/01/07 05:55:03;;;;;;;24.07;16.37;;;;;;;;;;2074936;28;20184;-58
2022/01/07 05:56:04;;;;;;;25.37;17.93;;;;;;;;;;2081218;28;20275;-63
2022/01/07 05:57:06;;;;;;;20.63;16.77;;;;;;;;;;2081356;28;20188;-57